Time,TemperatureF,DewpointF,PressureIn,WindDirection,WindDirectionDegrees,WindSpeedMPH,WindSpeedGustMPH,Humidity,HourlyPrecipIn,Conditions,Clouds,dailyrainin,SoftwareType,DateUTC
2013-09-03 00:00:00,75.3,73.5,29.97,ENE,65,1.0,1.0,94,0.00,,CLR,0.00,VWS V12.08,2013-09-03 04:00:00,
2013-09-03 00:04:00,75.2,73.7,29.97,ENE,65,0.0,2.0,95,0.00,,CLR,0.00,VWS V12.08,2013-09-03 04:04:00,
2013-09-03 00:09:00,75.2,73.7,29.97,ENE,65,0.0,1.0,95,0.00,,CLR,0.00,VWS V12.08,2013-09-03 04:09:00,
2013-09-03 00:14:00,75.2,73.7,29.97,ENE,65,1.0,1.0,95,0.00,,CLR,0.00,VWS V12.08,2013-09-03 04:14:00,
2013-09-03 00:19:00,75.2,73.7,29.97,ENE,65,0.0,1.0,95,0.00,,CLR,0.00,VWS V12.08,2013-09-03 04:19:00,
2013-09-03 00:24:00,75.5,74.0,29.97,ENE,65,1.0,3.0,95,0.00,,CLR,0.00,VWS V12.08,2013-09-03 04:24:00,
2013-09-03 00:29:00,75.8,74.3,29.97,ENE,67,2.0,4.0,95,0.00,,CLR,0.00,VWS V12.08,2013-09-03 04:29:00,
2013-09-03 00:34:00,76.0,74.2,29.97,SE,133,2.0,5.0,94,0.00,,CLR,0.00,VWS V12.08,2013-09-03 04:34:00,
2013-09-03 00:39:00,76.2,74.3,29.97,SE,134,0.0,3.0,94,0.00,,CLR,0.00,VWS V12.08,2013-09-03 04:39:00,
2013-09-03 00:44:00,76.4,74.6,29.97,SE,134,1.0,2.0,94,0.00,,CLR,0.00,VWS V12.08,2013-09-03 04:44:00,
2013-09-03 00:49:00,76.3,74.4,29.97,SE,134,1.0,2.0,94,0.00,,CLR,0.00,VWS V12.08,2013-09-03 04:49:00,
2013-09-03 00:54:00,76.2,74.3,29.97,SE,134,0.0,2.0,94,0.00,,CLR,0.00,VWS V12.08,2013-09-03 04:54:00,
2013-09-03 00:59:00,76.0,74.2,29.97,SE,134,1.0,2.0,94,0.00,,CLR,0.00,VWS V12.08,2013-09-03 04:59:00,
2013-09-03 01:04:00,75.8,74.3,29.97,SE,134,0.0,2.0,95,0.00,,CLR,0.00,VWS V12.08,2013-09-03 05:04:00,
2013-09-03 01:09:00,75.9,74.4,29.96,SE,134,0.0,3.0,95,0.00,,CLR,0.00,VWS V12.08,2013-09-03 05:09:00,
2013-09-03 01:14:00,75.8,74.3,29.96,SE,134,0.0,1.0,95,0.00,,CLR,0.00,VWS V12.08,2013-09-03 05:14:00,
2013-09-03 01:19:00,75.7,74.2,29.96,SE,134,0.0,1.0,95,0.00,,CLR,0.00,VWS V12.08,2013-09-03 05:19:00,
2013-09-03 01:24:00,75.6,74.1,29.96,SE,134,0.0,1.0,95,0.00,,CLR,0.00,VWS V12.08,2013-09-03 05:24:00,
2013-09-03 01:29:00,75.6,74.1,29.96,SE,134,1.0,2.0,95,0.00,,CLR,0.00,VWS V12.08,2013-09-03 05:29:00,
2013-09-03 01:34:00,75.5,74.0,29.96,SE,134,0.0,2.0,95,0.00,,CLR,0.00,VWS V12.08,2013-09-03 05:34:00,
2013-09-03 01:39:00,75.5,74.0,29.96,SE,134,0.0,2.0,95,0.00,,CLR,0.00,VWS V12.08,2013-09-03 05:39:00,
2013-09-03 01:44:00,75.5,74.0,29.96,SE,134,0.0,2.0,95,0.00,,CLR,0.00,VWS V12.08,2013-09-03 05:44:00,
2013-09-03 01:49:00,75.6,74.1,29.96,SE,134,0.0,2.0,95,0.00,,CLR,0.00,VWS V12.08,2013-09-03 05:49:00,
2013-09-03 01:54:00,75.7,74.2,29.96,SE,134,3.0,3.0,95,0.00,,CLR,0.00,VWS V12.08,2013-09-03 05:54:00,
2013-09-03 02:00:00,75.7,74.2,29.96,SE,134,1.0,3.0,95,0.00,,CLR,0.00,VWS V12.08,2013-09-03 06:00:00,
2013-09-03 02:09:00,75.6,74.1,29.95,SE,134,1.0,2.0,95,0.00,,CLR,0.00,VWS V12.08,2013-09-03 06:09:00,
2013-09-03 02:14:00,75.6,74.1,29.95,SE,134,0.0,2.0,95,0.00,,CLR,0.00,VWS V12.08,2013-09-03 06:14:00,
2013-09-03 02:19:00,75.6,74.1,29.95,SE,134,1.0,1.0,95,0.00,,CLR,0.00,VWS V12.08,2013-09-03 06:19:00,
2013-09-03 02:24:00,75.6,74.1,29.95,SE,134,0.0,1.0,95,0.00,,CLR,0.00,VWS V12.08,2013-09-03 06:24:00,
2013-09-03 02:30:00,75.6,74.1,29.95,SE,134,0.0,1.0,95,0.00,,CLR,0.00,VWS V12.08,2013-09-03 06:30:00,
2013-09-03 02:39:00,75.5,74.0,29.94,SE,134,1.0,1.0,95,0.00,,CLR,0.00,VWS V12.08,2013-09-03 06:39:00,
2013-09-03 02:44:00,75.4,73.9,29.94,SE,134,1.0,2.0,95,0.00,,CLR,0.00,VWS V12.08,2013-09-03 06:44:00,
2013-09-03 02:49:00,75.5,74.0,29.94,SE,134,1.0,3.0,95,0.00,,CLR,0.00,VWS V12.08,2013-09-03 06:49:00,
2013-09-03 02:54:00,75.5,74.0,29.94,SE,134,1.0,2.0,95,0.00,,CLR,0.00,VWS V12.08,2013-09-03 06:54:00,
2013-09-03 03:00:00,75.3,73.8,29.93,SE,134,1.0,4.0,95,0.00,,CLR,0.00,VWS V12.08,2013-09-03 07:00:00,
2013-09-03 03:09:00,75.2,74.0,29.93,SE,134,1.0,2.0,96,0.00,,CLR,0.00,VWS V12.08,2013-09-03 07:09:00,
2013-09-03 03:14:00,75.2,74.0,29.93,SE,134,2.0,3.0,96,0.00,,CLR,0.00,VWS V12.08,2013-09-03 07:14:00,
2013-09-03 03:19:00,75.3,74.1,29.94,SE,134,0.0,3.0,96,0.00,,CLR,0.00,VWS V12.08,2013-09-03 07:19:00,
2013-09-03 03:24:00,75.3,74.1,29.94,SE,134,1.0,2.0,96,0.00,,CLR,0.00,VWS V12.08,2013-09-03 07:24:00,
2013-09-03 03:29:00,75.2,74.0,29.94,SE,134,1.0,2.0,96,0.00,,CLR,0.00,VWS V12.08,2013-09-03 07:29:00,
2013-09-03 03:34:00,75.1,73.9,29.93,SE,134,1.0,2.0,96,0.00,,CLR,0.00,VWS V12.08,2013-09-03 07:34:00,
2013-09-03 03:39:00,75.1,73.9,29.93,SE,134,1.0,2.0,96,0.00,,CLR,0.00,VWS V12.08,2013-09-03 07:39:00,
2013-09-03 03:44:00,75.1,73.9,29.93,SE,134,1.0,2.0,96,0.00,,CLR,0.00,VWS V12.08,2013-09-03 07:44:00,
2013-09-03 03:49:00,75.0,73.8,29.93,SE,134,1.0,2.0,96,0.00,,CLR,0.00,VWS V12.08,2013-09-03 07:49:00,
2013-09-03 03:54:00,75.1,73.9,29.93,SE,134,4.0,4.0,96,0.00,,CLR,0.00,VWS V12.08,2013-09-03 07:54:00,
2013-09-03 03:59:00,75.1,73.9,29.92,SE,134,1.0,4.0,96,0.00,,CLR,0.00,VWS V12.08,2013-09-03 07:59:00,
2013-09-03 04:04:00,75.3,74.1,29.92,SE,134,3.0,3.0,96,0.00,,CLR,0.00,VWS V12.08,2013-09-03 08:04:00,
2013-09-03 04:09:00,75.3,74.1,29.92,SE,134,0.0,3.0,96,0.00,,CLR,0.00,VWS V12.08,2013-09-03 08:09:00,
2013-09-03 04:14:00,75.4,74.2,29.92,SE,134,2.0,3.0,96,0.00,,CLR,0.00,VWS V12.08,2013-09-03 08:14:00,
2013-09-03 04:19:00,75.3,74.1,29.92,SE,134,1.0,3.0,96,0.00,,CLR,0.00,VWS V12.08,2013-09-03 08:19:00,
2013-09-03 04:24:00,75.1,73.9,29.92,SE,134,1.0,2.0,96,0.00,,CLR,0.00,VWS V12.08,2013-09-03 08:24:00,
2013-09-03 04:29:00,75.1,73.9,29.92,SE,134,1.0,3.0,96,0.00,,CLR,0.00,VWS V12.08,2013-09-03 08:29:00,
2013-09-03 04:34:00,75.2,74.0,29.92,SE,134,2.0,3.0,96,0.00,,CLR,0.00,VWS V12.08,2013-09-03 08:34:00,
2013-09-03 04:39:00,75.1,73.9,29.92,SE,134,2.0,3.0,96,0.00,,CLR,0.00,VWS V12.08,2013-09-03 08:39:00,
2013-09-03 04:44:00,75.2,74.0,29.92,SE,134,1.0,4.0,96,0.00,,CLR,0.00,VWS V12.08,2013-09-03 08:44:00,
2013-09-03 04:49:00,75.1,73.9,29.92,SE,134,2.0,3.0,96,0.00,,CLR,0.00,VWS V12.08,2013-09-03 08:49:00,
2013-09-03 04:54:00,75.1,73.9,29.92,SE,134,2.0,3.0,96,0.00,,CLR,0.00,VWS V12.08,2013-09-03 08:54:00,
2013-09-03 04:59:00,75.1,73.6,29.92,SE,134,3.0,3.0,95,0.00,,CLR,0.00,VWS V12.08,2013-09-03 08:59:00,
2013-09-03 05:04:00,75.1,73.6,29.92,SE,134,4.0,4.0,95,0.00,,CLR,0.00,VWS V12.08,2013-09-03 09:04:00,
2013-09-03 05:09:00,75.2,73.7,29.92,SE,134,1.0,4.0,95,0.00,,CLR,0.00,VWS V12.08,2013-09-03 09:09:00,
2013-09-03 05:14:00,75.2,73.7,29.92,SE,134,1.0,2.0,95,0.00,,CLR,0.00,VWS V12.08,2013-09-03 09:14:00,
2013-09-03 05:24:00,75.0,73.5,29.92,SE,134,0.0,1.0,95,0.00,,CLR,0.00,VWS V12.08,2013-09-03 09:24:00,
2013-09-03 05:29:00,74.9,73.4,29.92,SE,134,0.0,2.0,95,0.00,,CLR,0.00,VWS V12.08,2013-09-03 09:29:00,
2013-09-03 05:34:00,74.8,73.3,29.92,SE,134,1.0,2.0,95,0.00,,CLR,0.00,VWS V12.08,2013-09-03 09:34:00,
2013-09-03 05:39:00,74.7,73.2,29.92,SE,134,2.0,3.0,95,0.00,,CLR,0.00,VWS V12.08,2013-09-03 09:39:00,
2013-09-03 05:44:00,74.7,73.2,29.93,SE,134,1.0,3.0,95,0.00,,CLR,0.00,VWS V12.08,2013-09-03 09:44:00,
2013-09-03 05:49:00,74.7,73.2,29.93,SE,134,1.0,2.0,95,0.00,,CLR,0.00,VWS V12.08,2013-09-03 09:49:00,
2013-09-03 05:54:00,74.6,73.1,29.93,SE,134,0.0,2.0,95,0.00,,CLR,0.00,VWS V12.08,2013-09-03 09:54:00,
2013-09-03 05:59:00,74.5,73.0,29.93,SE,134,0.0,1.0,95,0.00,,CLR,0.00,VWS V12.08,2013-09-03 09:59:00,
2013-09-03 06:04:00,74.4,72.9,29.94,SE,134,0.0,1.0,95,0.00,,CLR,0.00,VWS V12.08,2013-09-03 10:04:00,
2013-09-03 06:09:00,74.5,73.0,29.94,SE,134,0.0,2.0,95,0.00,,CLR,0.00,VWS V12.08,2013-09-03 10:09:00,
2013-09-03 06:14:00,74.5,73.0,29.94,SE,134,1.0,1.0,95,0.00,,CLR,0.00,VWS V12.08,2013-09-03 10:14:00,
2013-09-03 06:19:00,74.4,72.9,29.94,SE,134,2.0,2.0,95,0.00,,CLR,0.00,VWS V12.08,2013-09-03 10:19:00,
2013-09-03 06:24:00,74.4,72.9,29.94,SE,134,2.0,2.0,95,0.00,,CLR,0.00,VWS V12.08,2013-09-03 10:24:00,
2013-09-03 06:29:00,74.4,72.9,29.94,SE,134,0.0,2.0,95,0.00,,CLR,0.00,VWS V12.08,2013-09-03 10:29:00,
2013-09-03 06:39:00,74.5,73.0,29.94,SE,134,1.0,2.0,95,0.00,,CLR,0.00,VWS V12.08,2013-09-03 10:39:00,
2013-09-03 06:44:00,74.4,72.9,29.94,SE,134,0.0,1.0,95,0.00,,CLR,0.00,VWS V12.08,2013-09-03 10:44:00,
2013-09-03 06:54:00,74.2,72.7,29.95,SE,134,1.0,2.0,95,0.00,,CLR,0.00,VWS V12.08,2013-09-03 10:54:00,
2013-09-03 06:59:00,74.4,72.9,29.95,SE,134,0.0,2.0,95,0.00,,CLR,0.00,VWS V12.08,2013-09-03 10:59:00,
2013-09-03 07:09:00,74.3,72.8,29.95,SE,134,1.0,2.0,95,0.00,,CLR,0.00,VWS V12.08,2013-09-03 11:09:00,
2013-09-03 07:14:00,74.3,72.8,29.95,SE,134,2.0,2.0,95,0.00,,CLR,0.00,VWS V12.08,2013-09-03 11:14:00,
2013-09-03 07:19:00,74.5,73.0,29.95,SE,134,1.0,4.0,95,0.00,,CLR,0.00,VWS V12.08,2013-09-03 11:19:00,
2013-09-03 07:30:00,75.4,73.6,29.96,SE,134,2.0,3.0,94,0.00,,CLR,0.00,VWS V12.08,2013-09-03 11:30:00,
2013-09-03 07:35:00,75.9,73.7,29.96,SE,134,2.0,3.0,93,0.00,,CLR,0.00,VWS V12.08,2013-09-03 11:35:00,
2013-09-03 07:45:00,76.7,73.9,29.96,SE,134,0.0,2.0,91,0.00,,CLR,0.00,VWS V12.08,2013-09-03 11:45:00,
2013-09-03 07:50:00,77.1,74.3,29.96,SE,134,2.0,2.0,91,0.00,,CLR,0.00,VWS V12.08,2013-09-03 11:50:00,
2013-09-03 07:55:00,77.3,74.1,29.96,SE,134,2.0,4.0,90,0.00,,CLR,0.00,VWS V12.08,2013-09-03 11:55:00,
2013-09-03 08:00:00,77.5,74.3,29.96,SE,133,0.0,4.0,90,0.00,,CLR,0.00,VWS V12.08,2013-09-03 12:00:00,
2013-09-03 08:09:00,78.1,74.6,29.96,SE,133,1.0,3.0,89,0.00,,CLR,0.00,VWS V12.08,2013-09-03 12:09:00,
2013-09-03 08:14:00,78.5,75.0,29.96,SE,133,2.0,3.0,89,0.00,,CLR,0.00,VWS V12.08,2013-09-03 12:14:00,
2013-09-03 08:20:00,78.7,74.8,29.96,SE,133,1.0,3.0,88,0.00,,CLR,0.00,VWS V12.08,2013-09-03 12:20:00,
2013-09-03 08:25:00,79.1,75.2,29.96,SE,133,1.0,3.0,88,0.00,,CLR,0.00,VWS V12.08,2013-09-03 12:25:00,
2013-09-03 08:30:00,79.0,74.8,29.96,SE,133,0.0,2.0,87,0.00,,CLR,0.00,VWS V12.08,2013-09-03 12:30:00,
2013-09-03 08:39:00,78.8,74.9,29.96,SE,133,1.0,3.0,88,0.00,,CLR,0.00,VWS V12.08,2013-09-03 12:39:00,
2013-09-03 08:45:00,79.4,75.5,29.96,SE,133,1.0,4.0,88,0.00,,CLR,0.00,VWS V12.08,2013-09-03 12:45:00,
2013-09-03 08:55:00,79.8,75.2,29.96,SE,133,2.0,3.0,86,0.00,,CLR,0.00,VWS V12.08,2013-09-03 12:55:00,
2013-09-03 09:00:00,79.3,75.1,29.96,SE,133,2.0,2.0,87,0.00,,CLR,0.00,VWS V12.08,2013-09-03 13:00:00,
2013-09-03 09:10:00,79.4,75.5,29.97,SE,133,1.0,2.0,88,0.00,,CLR,0.00,VWS V12.08,2013-09-03 13:10:00,
2013-09-03 09:15:00,80.1,75.9,29.98,SE,133,0.0,2.0,87,0.00,,CLR,0.00,VWS V12.08,2013-09-03 13:15:00,
2013-09-03 09:20:00,80.5,75.9,29.98,SE,133,0.0,2.0,86,0.00,,CLR,0.00,VWS V12.08,2013-09-03 13:20:00,
2013-09-03 09:25:00,81.1,76.2,29.98,SE,133,0.0,4.0,85,0.00,,CLR,0.00,VWS V12.08,2013-09-03 13:25:00,
2013-09-03 09:30:00,82.3,76.6,29.99,SE,133,0.0,2.0,83,0.00,,CLR,0.00,VWS V12.08,2013-09-03 13:30:00,
2013-09-03 09:40:00,83.3,76.9,29.99,SE,133,0.0,2.0,81,0.00,,CLR,0.00,VWS V12.08,2013-09-03 13:40:00,
2013-09-03 09:45:00,83.4,77.0,29.99,SE,133,1.0,3.0,81,0.00,,CLR,0.00,VWS V12.08,2013-09-03 13:45:00,
2013-09-03 09:55:00,84.9,77.3,29.99,SE,133,0.0,3.0,78,0.00,,CLR,0.00,VWS V12.08,2013-09-03 13:55:00,
2013-09-03 10:00:00,84.6,77.0,29.99,SE,133,0.0,1.0,78,0.00,,CLR,0.00,VWS V12.08,2013-09-03 14:00:00,
2013-09-03 10:10:00,84.7,77.1,29.99,SE,133,0.0,2.0,78,0.00,,CLR,0.00,VWS V12.08,2013-09-03 14:10:00,
2013-09-03 10:15:00,84.8,76.8,29.99,SE,133,0.0,3.0,77,0.00,,CLR,0.00,VWS V12.08,2013-09-03 14:15:00,
2013-09-03 10:25:00,84.5,76.9,29.99,SE,145,2.0,3.0,78,0.00,,CLR,0.00,VWS V12.08,2013-09-03 14:25:00,
2013-09-03 10:30:00,84.0,77.2,30.00,SE,145,0.0,2.0,80,0.00,,CLR,0.00,VWS V12.08,2013-09-03 14:30:00,
2013-09-03 10:40:00,83.6,77.2,30.00,SE,145,2.0,4.0,81,0.00,,CLR,0.00,VWS V12.08,2013-09-03 14:40:00,
2013-09-03 10:45:00,83.4,77.0,30.01,SE,145,2.0,3.0,81,0.00,,CLR,0.00,VWS V12.08,2013-09-03 14:45:00,
2013-09-03 10:55:00,85.4,77.8,30.01,SSE,161,1.0,5.0,78,0.00,,CLR,0.00,VWS V12.08,2013-09-03 14:55:00,
2013-09-03 11:00:00,85.4,77.4,30.01,SW,223,4.0,6.0,77,0.00,,CLR,0.00,VWS V12.08,2013-09-03 15:00:00,
2013-09-03 11:10:00,85.1,76.7,30.01,SW,235,6.0,7.0,76,0.00,,CLR,0.00,VWS V12.08,2013-09-03 15:10:00,
2013-09-03 11:15:00,85.5,77.5,30.01,South,184,2.0,6.0,77,0.00,,CLR,0.00,VWS V12.08,2013-09-03 15:15:00,
2013-09-03 11:25:00,85.3,76.9,30.01,South,178,2.0,6.0,76,0.00,,CLR,0.00,VWS V12.08,2013-09-03 15:25:00,
2013-09-03 11:30:00,84.8,76.8,30.02,South,174,1.0,5.0,77,0.00,,CLR,0.00,VWS V12.08,2013-09-03 15:30:00,
2013-09-03 11:40:00,84.1,76.5,30.02,South,180,3.0,4.0,78,0.00,,CLR,0.00,VWS V12.08,2013-09-03 15:40:00,
2013-09-03 11:45:00,83.8,76.6,30.02,South,186,5.0,5.0,79,0.00,,CLR,0.00,VWS V12.08,2013-09-03 15:45:00,
2013-09-03 11:55:00,83.4,76.6,30.02,SSW,202,2.0,4.0,80,0.00,,CLR,0.00,VWS V12.08,2013-09-03 15:55:00,
2013-09-03 12:00:00,83.4,76.6,30.02,SSW,202,3.0,3.0,80,0.00,,CLR,0.00,VWS V12.08,2013-09-03 16:00:00,
2013-09-03 12:10:00,83.4,76.2,30.01,SW,218,3.0,6.0,79,0.00,,CLR,0.00,VWS V12.08,2013-09-03 16:10:00,
2013-09-03 12:15:00,83.5,76.3,30.01,SW,215,3.0,5.0,79,0.00,,CLR,0.00,VWS V12.08,2013-09-03 16:15:00,
2013-09-03 12:25:00,83.9,76.7,30.00,SW,227,3.0,4.0,79,0.00,,CLR,0.00,VWS V12.08,2013-09-03 16:25:00,
2013-09-03 12:30:00,84.0,76.8,30.00,SW,227,2.0,5.0,79,0.00,,CLR,0.00,VWS V12.08,2013-09-03 16:30:00,
2013-09-03 12:40:00,84.6,77.8,30.01,WSW,256,5.0,8.0,80,0.00,,CLR,0.00,VWS V12.08,2013-09-03 16:40:00,
2013-09-03 12:45:00,85.8,78.9,30.01,West,263,3.0,5.0,80,0.00,,CLR,0.00,VWS V12.08,2013-09-03 16:45:00,
2013-09-03 12:55:00,84.8,76.8,30.01,WSW,242,2.0,5.0,77,0.00,,CLR,0.00,VWS V12.08,2013-09-03 16:55:00,
2013-09-03 13:00:00,85.9,77.9,30.01,WSW,239,2.0,5.0,77,0.00,,CLR,0.00,VWS V12.08,2013-09-03 17:00:00,
2013-09-03 13:10:00,85.2,76.8,30.00,WSW,239,1.0,5.0,76,0.00,,CLR,0.00,VWS V12.08,2013-09-03 17:10:00,
2013-09-03 13:15:00,85.7,76.9,29.99,WSW,239,2.0,5.0,75,0.00,,CLR,0.00,VWS V12.08,2013-09-03 17:15:00,
2013-09-03 13:25:00,86.2,77.3,29.99,WSW,239,3.0,4.0,75,0.00,,CLR,0.00,VWS V12.08,2013-09-03 17:25:00,
2013-09-03 13:30:00,85.8,77.0,29.99,WSW,239,3.0,6.0,75,0.00,,CLR,0.00,VWS V12.08,2013-09-03 17:30:00,
2013-09-03 13:40:00,86.2,77.3,29.98,WSW,244,0.0,5.0,75,0.00,,CLR,0.00,VWS V12.08,2013-09-03 17:40:00,
2013-09-03 13:45:00,86.1,76.8,29.98,WSW,244,0.0,4.0,74,0.00,,CLR,0.00,VWS V12.08,2013-09-03 17:45:00,
2013-09-03 13:55:00,85.6,77.6,29.98,NE,40,5.0,7.0,77,0.00,,CLR,0.00,VWS V12.08,2013-09-03 17:55:00,
2013-09-03 14:00:00,85.6,77.6,29.98,NNE,32,2.0,8.0,77,0.00,,CLR,0.00,VWS V12.08,2013-09-03 18:00:00,
2013-09-03 14:10:00,86.9,78.0,29.97,NE,51,0.0,2.0,75,0.00,,CLR,0.00,VWS V12.08,2013-09-03 18:10:00,
2013-09-03 14:15:00,86.8,78.3,29.97,NE,51,1.0,4.0,76,0.00,,CLR,0.00,VWS V12.08,2013-09-03 18:15:00,
2013-09-03 14:25:00,88.0,79.5,29.97,ENE,78,1.0,3.0,76,0.00,,CLR,0.00,VWS V12.08,2013-09-03 18:25:00,
2013-09-03 14:30:00,87.8,79.3,29.97,SE,141,1.0,5.0,76,0.00,,CLR,0.00,VWS V12.08,2013-09-03 18:30:00,
2013-09-03 14:35:00,86.9,77.2,29.97,South,173,0.0,5.0,73,0.00,,CLR,0.00,VWS V12.08,2013-09-03 18:35:00,
2013-09-03 14:45:00,86.3,77.4,29.96,West,268,0.0,2.0,75,0.00,,CLR,0.00,VWS V12.08,2013-09-03 18:45:00,
2013-09-03 14:54:00,86.2,76.9,29.96,WSW,239,1.0,4.0,74,0.00,,BKN031,0.00,VWS V12.08,2013-09-03 18:54:00,
2013-09-03 15:00:00,86.6,76.5,29.96,WSW,240,0.0,3.0,72,0.00,,BKN031,0.00,VWS V12.08,2013-09-03 19:00:00,
2013-09-03 15:09:00,87.2,76.7,29.95,NNE,13,1.0,3.0,71,0.00,,BKN031,0.00,VWS V12.08,2013-09-03 19:09:00,
2013-09-03 15:15:00,86.4,76.3,29.95,West,267,3.0,6.0,72,0.00,,BKN031,0.00,VWS V12.08,2013-09-03 19:15:00,
2013-09-03 15:20:00,86.0,76.8,29.95,WSW,245,3.0,6.0,74,0.00,,BKN031,0.00,VWS V12.08,2013-09-03 19:20:00,
2013-09-03 15:25:00,85.8,77.0,29.95,WNW,288,3.0,7.0,75,0.00,,BKN031,0.00,VWS V12.08,2013-09-03 19:25:00,
2013-09-03 15:30:00,85.6,77.6,29.95,West,276,4.0,6.0,77,0.00,,BKN031,0.00,VWS V12.08,2013-09-03 19:30:00,
2013-09-03 15:39:00,83.3,75.7,29.95,NW,321,6.0,13.0,78,0.00,,BKN031,0.00,VWS V12.08,2013-09-03 19:39:00,
2013-09-03 15:45:00,84.8,77.2,29.95,NNW,348,8.0,13.0,78,0.00,,BKN031,0.00,VWS V12.08,2013-09-03 19:45:00,
2013-09-03 15:50:00,84.1,75.3,29.95,NNE,28,11.0,14.0,75,0.00,,CLR,0.00,VWS V12.08,2013-09-03 19:50:00,
2013-09-03 15:55:00,83.6,76.4,29.95,NNE,23,10.0,13.0,79,0.00,,CLR,0.00,VWS V12.08,2013-09-03 19:55:00,
2013-09-03 16:00:00,84.1,76.1,29.96,NE,34,2.0,16.0,77,0.00,,CLR,0.00,VWS V12.08,2013-09-03 20:00:00,
2013-09-03 16:05:00,82.3,76.3,29.95,North,355,6.0,10.0,82,0.00,,CLR,0.00,VWS V12.08,2013-09-03 20:05:00,
2013-09-03 16:10:00,84.5,75.3,29.95,NNE,29,6.0,12.0,74,0.00,,CLR,0.00,VWS V12.08,2013-09-03 20:10:00,
2013-09-03 16:15:00,85.1,74.2,29.94,NNE,20,6.0,11.0,70,0.00,,CLR,0.00,VWS V12.08,2013-09-03 20:15:00,
2013-09-03 16:20:00,86.0,74.7,29.94,NNE,33,8.0,12.0,69,0.00,,CLR,0.00,VWS V12.08,2013-09-03 20:20:00,
2013-09-03 16:25:00,85.3,74.8,29.94,NNE,28,2.0,12.0,71,0.00,,CLR,0.00,VWS V12.08,2013-09-03 20:25:00,
2013-09-03 16:30:00,85.7,73.5,29.94,NNE,24,5.0,8.0,67,0.00,,CLR,0.00,VWS V12.08,2013-09-03 20:30:00,
2013-09-03 16:35:00,86.2,73.5,29.94,NNE,12,3.0,9.0,66,0.00,,CLR,0.00,VWS V12.08,2013-09-03 20:35:00,
2013-09-03 16:40:00,86.0,74.2,29.94,NE,55,2.0,8.0,68,0.00,,CLR,0.00,VWS V12.08,2013-09-03 20:40:00,
2013-09-03 16:45:00,86.3,73.6,29.94,NE,55,2.0,6.0,66,0.00,,CLR,0.00,VWS V12.08,2013-09-03 20:45:00,
2013-09-03 16:50:00,87.1,75.3,29.94,NE,53,7.0,8.0,68,0.00,,BKN090,0.00,VWS V12.08,2013-09-03 20:50:00,
2013-09-03 16:55:00,87.4,75.1,29.94,NE,38,3.0,8.0,67,0.00,,BKN090,0.00,VWS V12.08,2013-09-03 20:55:00,
2013-09-03 17:00:00,87.6,74.4,29.94,NE,51,3.0,6.0,65,0.00,,BKN090,0.00,VWS V12.08,2013-09-03 21:00:00,
2013-09-03 17:05:00,88.0,74.3,29.94,NE,51,2.0,5.0,64,0.00,,BKN090,0.00,VWS V12.08,2013-09-03 21:05:00,
2013-09-03 17:10:00,88.4,76.1,29.94,North,9,4.0,7.0,67,0.00,,BKN090,0.00,VWS V12.08,2013-09-03 21:10:00,
2013-09-03 17:15:00,88.0,76.6,29.93,NNE,22,2.0,7.0,69,0.00,,BKN090,0.00,VWS V12.08,2013-09-03 21:15:00,
2013-09-03 17:20:00,87.4,76.8,29.93,NNE,22,0.0,5.0,71,0.00,,BKN090,0.00,VWS V12.08,2013-09-03 21:20:00,
2013-09-03 17:25:00,87.2,77.1,29.93,NE,39,2.0,6.0,72,0.00,,BKN090,0.00,VWS V12.08,2013-09-03 21:25:00,
2013-09-03 17:30:00,86.8,76.7,29.93,NE,45,3.0,7.0,72,0.00,,BKN090,0.00,VWS V12.08,2013-09-03 21:30:00,
2013-09-03 17:35:00,87.1,76.1,29.93,NNE,31,4.0,7.0,70,0.00,,BKN090,0.00,VWS V12.08,2013-09-03 21:35:00,
2013-09-03 17:40:00,86.8,74.5,29.93,NNE,31,2.0,5.0,67,0.00,,BKN090,0.00,VWS V12.08,2013-09-03 21:40:00,
2013-09-03 17:45:00,86.6,74.3,29.93,NNE,33,2.0,5.0,67,0.00,,BKN090,0.00,VWS V12.08,2013-09-03 21:45:00,
2013-09-03 17:50:00,86.3,74.5,29.93,NNE,33,5.0,5.0,68,0.00,,SCT042,0.00,VWS V12.08,2013-09-03 21:50:00,
2013-09-03 18:00:00,86.0,73.8,29.93,NNE,33,2.0,4.0,67,0.00,,SCT042,0.00,VWS V12.08,2013-09-03 22:00:00,
2013-09-03 18:05:00,85.7,74.8,29.93,NNE,33,2.0,3.0,70,0.00,,SCT042,0.00,VWS V12.08,2013-09-03 22:05:00,
2013-09-03 18:10:00,85.6,73.8,29.93,NNE,33,1.0,4.0,68,0.00,,SCT042,0.00,VWS V12.08,2013-09-03 22:10:00,
2013-09-03 18:20:00,85.2,75.2,29.92,ENE,63,3.0,4.0,72,0.00,,SCT042,0.00,VWS V12.08,2013-09-03 22:20:00,
2013-09-03 18:25:00,85.4,75.8,29.92,NE,49,3.0,4.0,73,0.00,,SCT042,0.00,VWS V12.08,2013-09-03 22:25:00,
2013-09-03 18:35:00,85.3,75.7,29.92,NE,34,3.0,4.0,73,0.00,,SCT042,0.00,VWS V12.08,2013-09-03 22:35:00,
2013-09-03 18:40:00,85.2,75.6,29.92,NNE,33,0.0,4.0,73,0.00,,SCT042,0.00,VWS V12.08,2013-09-03 22:40:00,
2013-09-03 18:50:00,85.0,76.2,29.93,NE,36,2.0,4.0,75,0.00,,CLR,0.00,VWS V12.08,2013-09-03 22:50:00,
2013-09-03 18:55:00,85.0,75.8,29.93,NE,36,3.0,5.0,74,0.00,,CLR,0.00,VWS V12.08,2013-09-03 22:55:00,
2013-09-03 19:00:00,84.7,75.5,29.93,NE,42,4.0,5.0,74,0.00,,CLR,0.00,VWS V12.08,2013-09-03 23:00:00,
2013-09-03 19:05:00,84.6,75.8,29.93,NE,43,5.0,5.0,75,0.00,,CLR,0.00,VWS V12.08,2013-09-03 23:05:00,
2013-09-03 19:15:00,83.9,75.5,29.94,NE,44,2.0,3.0,76,0.00,,CLR,0.00,VWS V12.08,2013-09-03 23:15:00,
2013-09-03 19:20:00,83.7,75.7,29.94,NE,44,1.0,2.0,77,0.00,,CLR,0.00,VWS V12.08,2013-09-03 23:20:00,
2013-09-03 19:25:00,83.6,75.6,29.93,NE,44,1.0,2.0,77,0.00,,CLR,0.00,VWS V12.08,2013-09-03 23:25:00,
2013-09-03 19:30:00,83.6,76.0,29.94,NE,44,1.0,3.0,78,0.00,,CLR,0.00,VWS V12.08,2013-09-03 23:30:00,
2013-09-03 19:35:00,83.4,75.8,29.94,NE,44,3.0,3.0,78,0.00,,CLR,0.00,VWS V12.08,2013-09-03 23:35:00,
2013-09-03 19:40:00,83.2,75.6,29.94,NE,44,2.0,3.0,78,0.00,,CLR,0.00,VWS V12.08,2013-09-03 23:40:00,
2013-09-03 19:50:00,83.1,75.5,29.95,NE,44,0.0,1.0,78,0.00,,BKN090,0.00,VWS V12.08,2013-09-03 23:50:00,
2013-09-03 19:55:00,82.9,75.7,29.95,NE,44,0.0,0.0,79,0.00,,BKN090,0.00,VWS V12.08,2013-09-03 23:55:00,
2013-09-03 20:00:00,82.8,75.6,29.96,NE,44,0.0,1.0,79,0.00,,BKN090,0.00,VWS V12.08,2013-09-04 00:00:00,
2013-09-03 20:05:00,82.5,75.3,29.96,NE,44,0.0,1.0,79,0.00,,BKN090,0.00,VWS V12.08,2013-09-04 00:05:00,
2013-09-03 20:10:00,82.5,75.7,29.96,NE,44,1.0,1.0,80,0.00,,BKN090,0.00,VWS V12.08,2013-09-04 00:10:00,
2013-09-03 20:15:00,82.5,75.7,29.96,NE,44,0.0,1.0,80,0.00,,BKN090,0.00,VWS V12.08,2013-09-04 00:15:00,
2013-09-03 20:20:00,82.4,75.6,29.96,NE,44,0.0,1.0,80,0.00,,BKN090,0.00,VWS V12.08,2013-09-04 00:20:00,
2013-09-03 20:25:00,82.3,75.9,29.96,NE,44,0.0,0.0,81,0.00,,BKN090,0.00,VWS V12.08,2013-09-04 00:25:00,
2013-09-03 20:30:00,82.3,75.9,29.96,NE,44,0.0,0.0,81,0.00,,BKN090,0.00,VWS V12.08,2013-09-04 00:30:00,
2013-09-03 20:35:00,82.1,76.1,29.96,NE,44,0.0,0.0,82,0.00,,CLR,0.00,VWS V12.08,2013-09-04 00:35:00,
2013-09-03 20:40:00,82.1,76.1,29.96,NE,44,0.0,0.0,82,0.00,,CLR,0.00,VWS V12.08,2013-09-04 00:40:00,
2013-09-03 20:45:00,81.9,75.9,29.96,NE,44,0.0,0.0,82,0.00,,CLR,0.00,VWS V12.08,2013-09-04 00:45:00,
2013-09-03 20:50:00,81.7,75.7,29.96,NE,44,0.0,0.0,82,0.00,,CLR,0.00,VWS V12.08,2013-09-04 00:50:00,
2013-09-03 20:55:00,81.7,76.0,29.96,NE,44,0.0,0.0,83,0.00,,CLR,0.00,VWS V12.08,2013-09-04 00:55:00,
2013-09-03 21:00:00,81.5,75.8,29.96,NE,44,0.0,0.0,83,0.00,,CLR,0.00,VWS V12.08,2013-09-04 01:00:00,
2013-09-03 21:10:00,81.4,76.1,29.96,NE,44,0.0,1.0,84,0.00,,CLR,0.00,VWS V12.08,2013-09-04 01:10:00,
2013-09-03 21:15:00,81.4,76.1,29.96,NE,44,0.0,0.0,84,0.00,,CLR,0.00,VWS V12.08,2013-09-04 01:15:00,
2013-09-03 21:25:00,81.2,75.9,29.97,NE,44,0.0,0.0,84,0.00,,CLR,0.00,VWS V12.08,2013-09-04 01:25:00,
2013-09-03 21:30:00,81.1,75.8,29.97,NE,44,0.0,0.0,84,0.00,,CLR,0.00,VWS V12.08,2013-09-04 01:30:00,
2013-09-03 21:35:00,81.1,76.2,29.97,NE,44,0.0,0.0,85,0.00,,CLR,0.00,VWS V12.08,2013-09-04 01:35:00,
2013-09-03 21:40:00,81.1,76.2,29.97,NE,44,1.0,3.0,85,0.00,,CLR,0.00,VWS V12.08,2013-09-04 01:40:00,
2013-09-03 21:45:00,81.0,76.4,29.97,NE,44,3.0,4.0,86,0.00,,CLR,0.00,VWS V12.08,2013-09-04 01:45:00,
2013-09-03 21:50:00,81.2,76.3,29.98,ENE,69,2.0,4.0,85,0.00,,CLR,0.00,VWS V12.08,2013-09-04 01:50:00,
2013-09-03 21:55:00,81.2,76.3,29.98,ENE,71,1.0,4.0,85,0.00,,CLR,0.00,VWS V12.08,2013-09-04 01:55:00,
2013-09-03 22:00:00,81.1,76.2,29.98,ESE,102,3.0,6.0,85,0.00,,CLR,0.00,VWS V12.08,2013-09-04 02:00:00,
2013-09-03 22:10:00,80.7,76.1,29.98,ESE,102,0.0,4.0,86,0.00,,CLR,0.00,VWS V12.08,2013-09-04 02:10:00,
2013-09-03 22:15:00,80.5,75.9,29.98,ESE,102,2.0,4.0,86,0.00,,CLR,0.00,VWS V12.08,2013-09-04 02:15:00,
2013-09-03 22:20:00,80.4,75.8,29.98,ESE,102,1.0,2.0,86,0.00,,CLR,0.00,VWS V12.08,2013-09-04 02:20:00,
2013-09-03 22:25:00,80.3,75.7,29.98,ESE,102,0.0,3.0,86,0.00,,CLR,0.00,VWS V12.08,2013-09-04 02:25:00,
2013-09-03 22:30:00,80.2,75.6,29.99,ESE,102,0.0,2.0,86,0.00,,CLR,0.00,VWS V12.08,2013-09-04 02:30:00,
2013-09-03 22:35:00,80.0,75.8,29.99,ESE,102,0.0,2.0,87,0.00,,CLR,0.00,VWS V12.08,2013-09-04 02:35:00,
2013-09-03 22:40:00,79.9,75.7,29.99,ESE,102,1.0,3.0,87,0.00,,CLR,0.00,VWS V12.08,2013-09-04 02:40:00,
2013-09-03 22:45:00,80.0,76.1,29.99,ESE,102,0.0,3.0,88,0.00,,CLR,0.00,VWS V12.08,2013-09-04 02:45:00,
2013-09-03 22:50:00,79.8,75.9,29.99,ESE,102,0.0,2.0,88,0.00,,CLR,0.00,VWS V12.08,2013-09-04 02:50:00,
2013-09-03 22:55:00,79.8,75.9,29.99,ESE,102,0.0,2.0,88,0.00,,CLR,0.00,VWS V12.08,2013-09-04 02:55:00,
2013-09-03 23:00:00,79.6,75.7,29.99,ESE,102,0.0,3.0,88,0.00,,CLR,0.00,VWS V12.08,2013-09-04 03:00:00,
2013-09-03 23:10:00,79.7,75.8,29.99,ESE,102,1.0,4.0,88,0.00,,CLR,0.00,VWS V12.08,2013-09-04 03:10:00,
2013-09-03 23:15:00,79.8,75.9,29.99,ESE,102,2.0,3.0,88,0.00,,CLR,0.00,VWS V12.08,2013-09-04 03:15:00,
2013-09-03 23:20:00,79.8,75.9,29.99,ESE,102,3.0,3.0,88,0.00,,CLR,0.00,VWS V12.08,2013-09-04 03:20:00,
2013-09-03 23:25:00,79.9,76.0,29.99,ESE,102,1.0,4.0,88,0.00,,CLR,0.00,VWS V12.08,2013-09-04 03:25:00,
2013-09-03 23:30:00,80.0,76.1,29.99,ESE,102,3.0,4.0,88,0.00,,CLR,0.00,VWS V12.08,2013-09-04 03:30:00,
2013-09-03 23:40:00,79.9,76.0,29.99,ESE,102,0.0,4.0,88,0.00,,CLR,0.00,VWS V12.08,2013-09-04 03:40:00,
2013-09-03 23:45:00,79.8,75.9,29.99,ESE,102,2.0,2.0,88,0.00,,CLR,0.00,VWS V12.08,2013-09-04 03:45:00,
2013-09-03 23:55:00,79.6,76.1,30.00,ESE,102,1.0,3.0,89,0.00,,FEW034,0.00,VWS V12.08,2013-09-04 03:55:00,